Time;durP1;ratioP1;P1;durP2;ratioP2;P2;SDS_P1;SDS_P2;PMS_P1;PMS_P2;Temp;Humidity;BMP_temperature;BMP_pressure;BME280_temperature;BME280_humidity;BME280_pressure;Samples;Min_cycle;Max_cycle;Signal;HPM_P1;HPM_P2
2022/05/25 00:02:08;;;;;;;3.38;0.95;;;11.30;91.50;;;;;;4994763;28;20030;-72
2022/05/25 00:04:34;;;;;;;1.77;0.80;;;11.30;91.60;;;;;;4989487;28;20080;-74
2022/05/25 00:06:59;;;;;;;2.75;0.82;;;11.30;91.10;;;;;;5004342;28;20520;-76
2022/05/25 00:09:25;;;;;;;5.65;1.00;;;11.30;91.10;;;;;;4996239;28;20018;-72
2022/05/25 00:11:52;;;;;;;6.07;1.00;;;11.20;91.80;;;;;;4992437;28;20150;-70
2022/05/25 00:14:18;;;;;;;3.53;0.80;;;11.20;91.60;;;;;;4999427;28;20064;-73
2022/05/25 00:16:45;;;;;;;2.80;1.00;;;11.20;91.00;;;;;;4999212;28;20022;-73
2022/05/25 00:21:55;;;;;;;3.25;0.80;;;11.10;91.00;;;;;;4989665;28;20037;-73
2022/05/25 00:24:21;;;;;;;4.22;1.05;;;11.00;90.30;;;;;;5005059;28;20033;-72
2022/05/25 00:26:46;;;;;;;4.63;1.00;;;11.00;91.00;;;;;;4991729;28;20116;-71
2022/05/25 00:29:14;;;;;;;7.93;0.82;;;10.90;90.20;;;;;;4988787;28;20042;-70
2022/05/25 00:31:40;;;;;;;2.97;0.60;;;10.90;90.00;;;;;;4992737;28;20037;-71
2022/05/25 00:34:07;;;;;;;3.53;0.80;;;10.90;90.10;;;;;;4988888;28;20035;-77
2022/05/25 00:36:33;;;;;;;2.08;0.60;;;10.90;89.10;;;;;;4996533;28;20180;-70
2022/05/25 00:38:59;;;;;;;3.20;0.60;;;10.90;87.50;;;;;;5029535;28;20022;-70
2022/05/25 00:41:28;;;;;;;1.50;0.50;;;10.90;86.50;;;;;;5009525;28;20034;-70
2022/05/25 00:43:55;;;;;;;1.35;0.57;;;10.90;85.30;;;;;;4993657;28;20027;-72
2022/05/25 00:46:22;;;;;;;2.40;0.50;;;10.80;84.90;;;;;;4999858;28;20162;-75
2022/05/25 00:48:55;;;;;;;2.05;0.50;;;10.80;84.80;;;;;;5011373;28;20029;-74
2022/05/25 00:51:27;;;;;;;1.73;0.50;;;10.80;86.40;;;;;;4997182;28;20137;-71
2022/05/25 00:54:00;;;;;;;0.80;0.40;;;10.80;89.00;;;;;;5027208;28;20041;-70
2022/05/25 00:56:27;;;;;;;2.95;0.60;;;10.70;84.60;;;;;;5008025;28;20029;-71
2022/05/25 00:58:59;;;;;;;1.92;0.60;;;10.70;89.40;;;;;;5013113;28;20076;-76
2022/05/25 01:01:26;;;;;;;2.88;0.55;;;10.60;85.30;;;;;;5004429;28;20145;-70
2022/05/25 01:03:52;;;;;;;3.08;0.73;;;10.60;89.00;;;;;;5024865;28;20029;-72
2022/05/25 01:06:20;;;;;;;1.15;0.40;;;10.50;90.40;;;;;;5009160;28;20042;-71
2022/05/25 01:09:11;;;;;;;2.58;0.47;;;10.50;84.50;;;;;;5004494;28;20030;-70
2022/05/25 01:12:02;;;;;;;2.13;0.40;;;10.40;84.50;;;;;;5002442;28;20042;-72
2022/05/25 01:14:48;;;;;;;1.20;0.47;;;10.40;83.00;;;;;;4997639;28;20515;-73
2022/05/25 01:17:37;;;;;;;1.30;0.30;;;10.40;85.20;;;;;;4998824;28;20034;-75
2022/05/25 01:20:14;;;;;;;1.30;0.40;;;10.40;83.90;;;;;;5011157;28;20527;-70
2022/05/25 01:23:02;;;;;;;1.27;0.38;;;10.40;84.00;;;;;;4993498;28;20038;-71
2022/05/25 01:26:09;;;;;;;1.15;0.30;;;10.40;84.00;;;;;;5001953;28;20037;-74
2022/05/25 01:29:13;;;;;;;2.22;0.50;;;10.30;83.60;;;;;;4998896;28;20084;-71
2022/05/25 01:32:01;;;;;;;2.47;0.52;;;10.30;83.70;;;;;;5001929;28;20100;-73
2022/05/25 01:34:59;;;;;;;2.13;0.60;;;10.30;84.00;;;;;;5028862;28;20748;-70
2022/05/25 01:37:44;;;;;;;1.40;0.50;;;10.20;84.40;;;;;;4995275;28;20480;-71
2022/05/25 01:40:50;;;;;;;1.95;0.55;;;10.20;84.30;;;;;;5012788;28;20022;-70
2022/05/25 01:43:23;;;;;;;2.33;0.45;;;10.20;85.60;;;;;;5000166;28;20069;-73
2022/05/25 01:45:57;;;;;;;3.45;0.65;;;10.20;85.50;;;;;;5020818;28;20453;-71
2022/05/25 01:48:25;;;;;;;4.22;0.73;;;10.20;86.40;;;;;;5000540;28;20022;-69
2022/05/25 01:50:57;;;;;;;2.30;0.70;;;10.20;87.00;;;;;;5008525;28;20093;-69
2022/05/25 01:53:28;;;;;;;2.38;0.50;;;10.20;87.10;;;;;;5008405;28;20034;-71
2022/05/25 01:56:00;;;;;;;1.85;0.75;;;10.20;87.10;;;;;;5041085;28;20030;-75
2022/05/25 01:58:27;;;;;;;1.95;0.70;;;10.20;87.80;;;;;;5010242;28;20037;-72
2022/05/25 02:00:59;;;;;;;3.17;0.80;;;10.10;88.40;;;;;;5023454;28;20045;-70
2022/05/25 02:06:12;;;;;;;3.00;0.95;;;10.10;88.40;;;;;;5007471;28;20056;-73
2022/05/25 02:08:58;;;;;;;3.78;0.70;;;10.20;88.20;;;;;;5006772;28;20030;-73
2022/05/25 02:11:40;;;;;;;2.33;0.90;;;10.20;88.20;;;;;;5000040;28;20468;-74
2022/05/25 02:14:25;;;;;;;2.38;0.50;;;10.20;88.40;;;;;;5009111;28;20036;-73
2022/05/25 02:16:54;;;;;;;2.88;0.65;;;10.20;88.40;;;;;;5005743;28;20109;-71
2022/05/25 02:19:33;;;;;;;4.43;0.98;;;10.20;89.00;;;;;;5001565;28;20081;-70
2022/05/25 02:22:31;;;;;;;3.63;0.77;;;10.30;89.90;;;;;;5007859;28;20037;-73
2022/05/25 02:25:04;;;;;;;2.20;0.73;;;10.30;89.80;;;;;;4993217;28;20067;-72
2022/05/25 02:27:34;;;;;;;2.10;0.70;;;10.30;90.00;;;;;;5009030;28;20026;-75
2022/05/25 02:30:06;;;;;;;4.55;0.90;;;10.30;90.20;;;;;;5007474;28;20129;-72
2022/05/25 02:32:38;;;;;;;3.78;0.98;;;10.30;90.50;;;;;;5021819;28;20050;-74
2022/05/25 02:35:06;;;;;;;2.85;0.82;;;10.30;90.60;;;;;;5006744;28;20325;-70
2022/05/25 02:37:33;;;;;;;3.60;0.90;;;10.40;90.70;;;;;;5038532;28;20814;-73
2022/05/25 02:40:01;;;;;;;2.03;0.77;;;10.40;90.70;;;;;;5007238;28;20035;-73
2022/05/25 02:42:27;;;;;;;2.92;1.08;;;10.50;90.70;;;;;;5006481;28;20038;-70
2022/05/25 02:44:53;;;;;;;2.15;0.80;;;10.50;90.70;;;;;;5006064;28;20027;-78
2022/05/25 02:47:19;;;;;;;3.25;0.90;;;10.50;90.80;;;;;;5007659;28;20033;-72
2022/05/25 02:49:45;;;;;;;3.90;0.90;;;10.50;90.80;;;;;;5008897;28;20040;-72
2022/05/25 02:52:12;;;;;;;4.10;0.90;;;10.50;91.00;;;;;;5007295;28;20034;-71
2022/05/25 02:54:38;;;;;;;4.03;0.90;;;10.60;90.80;;;;;;5008481;28;20084;-72
2022/05/25 02:57:05;;;;;;;4.50;0.93;;;10.60;90.90;;;;;;5008622;28;20057;-71
2022/05/25 02:59:30;;;;;;;3.25;1.00;;;10.60;90.90;;;;;;5005905;28;20072;-72
2022/05/25 03:01:57;;;;;;;4.47;0.88;;;10.60;91.00;;;;;;5007808;28;20697;-72
2022/05/25 03:04:22;;;;;;;4.25;1.10;;;10.60;91.20;;;;;;5007060;28;20097;-74
2022/05/25 03:06:48;;;;;;;2.00;0.70;;;10.50;91.20;;;;;;4998618;28;20040;-72
2022/05/25 03:09:14;;;;;;;2.13;0.82;;;10.50;91.50;;;;;;5036706;28;20036;-73
2022/05/25 03:11:40;;;;;;;4.25;1.00;;;10.40;91.50;;;;;;5008362;28;20473;-72
2022/05/25 03:14:06;;;;;;;5.35;1.02;;;10.40;91.50;;;;;;5004296;28;20049;-72
2022/05/25 03:16:33;;;;;;;2.58;0.90;;;10.30;91.80;;;;;;5004427;28;20400;-72
2022/05/25 03:18:58;;;;;;;2.60;1.08;;;10.30;91.90;;;;;;5007071;28;20022;-71
2022/05/25 03:21:25;;;;;;;5.68;1.33;;;10.30;91.80;;;;;;5001247;28;20037;-71
2022/05/25 03:23:51;;;;;;;2.75;0.70;;;10.30;91.90;;;;;;5023733;28;20030;-77
2022/05/25 03:26:17;;;;;;;4.93;1.27;;;10.30;91.90;;;;;;5002028;28;20085;-73
2022/05/25 03:28:43;;;;;;;2.58;1.00;;;10.30;92.10;;;;;;5020354;28;20034;-75
2022/05/25 03:31:09;;;;;;;3.50;1.00;;;10.30;92.10;;;;;;5001168;28;20037;-73
2022/05/25 03:33:35;;;;;;;4.45;0.90;;;10.30;92.40;;;;;;5000905;28;20061;-70
2022/05/25 03:36:01;;;;;;;2.47;0.90;;;10.30;92.50;;;;;;4999754;28;20036;-72
2022/05/25 03:38:27;;;;;;;4.18;0.93;;;10.40;92.50;;;;;;5007657;28;20484;-70
2022/05/25 03:40:53;;;;;;;6.00;0.90;;;10.40;92.50;;;;;;5003651;28;20497;-72
2022/05/25 03:43:19;;;;;;;5.82;1.15;;;10.50;92.50;;;;;;4999786;28;20026;-72
2022/05/25 03:45:46;;;;;;;4.80;0.75;;;10.60;92.40;;;;;;5036728;28;20026;-71
2022/05/25 03:48:13;;;;;;;4.03;0.82;;;10.60;92.60;;;;;;5007655;28;20033;-72
2022/05/25 03:50:40;;;;;;;3.85;1.00;;;10.60;92.50;;;;;;5000654;28;20570;-72
2022/05/25 03:53:12;;;;;;;6.20;1.10;;;10.60;92.40;;;;;;4995784;28;20156;-72
2022/05/25 03:55:38;;;;;;;3.30;0.90;;;10.70;92.30;;;;;;4993849;28;20064;-71
2022/05/25 03:58:04;;;;;;;4.88;1.10;;;10.70;92.40;;;;;;5004274;28;20077;-72
2022/05/25 04:00:31;;;;;;;5.13;1.00;;;10.70;92.40;;;;;;5000029;28;20033;-71
2022/05/25 04:02:59;;;;;;;3.72;0.88;;;10.70;92.60;;;;;;5002887;28;20771;-72
2022/05/25 04:05:26;;;;;;;4.80;0.93;;;10.70;92.70;;;;;;4992907;28;20061;-74
2022/05/25 04:07:54;;;;;;;5.32;1.00;;;10.70;92.90;;;;;;5004603;28;20206;-72
2022/05/25 04:10:21;;;;;;;3.60;0.90;;;10.70;92.80;;;;;;4994195;28;20531;-74
2022/05/25 04:12:47;;;;;;;9.95;1.00;;;10.70;92.80;;;;;;4995187;28;20035;-71
2022/05/25 04:15:16;;;;;;;6.25;1.10;;;10.70;93.10;;;;;;5005417;28;20060;-73
2022/05/25 04:17:42;;;;;;;3.42;1.08;;;10.70;92.90;;;;;;5020157;28;20484;-72
2022/05/25 04:20:09;;;;;;;2.65;0.75;;;10.70;93.30;;;;;;5012320;28;20042;-82
2022/05/25 04:22:36;;;;;;;4.40;0.85;;;10.60;93.10;;;;;;5006133;28;20030;-73
2022/05/25 04:25:07;;;;;;;4.72;1.10;;;10.60;93.50;;;;;;5003704;28;20062;-73
2022/05/25 04:27:34;;;;;;;3.70;1.15;;;10.60;93.30;;;;;;5021791;28;20032;-73
2022/05/25 04:30:00;;;;;;;2.80;1.00;;;10.60;93.40;;;;;;5011875;28;20125;-72
2022/05/25 04:32:26;;;;;;;3.38;0.82;;;10.60;93.90;;;;;;5007424;28;20125;-73
2022/05/25 04:34:51;;;;;;;3.50;1.00;;;10.60;93.60;;;;;;5003368;28;20029;-72
2022/05/25 04:40:01;;;;;;;3.63;0.90;;;10.70;93.90;;;;;;4994228;28;20067;-72
2022/05/25 04:42:29;;;;;;;2.45;0.90;;;10.70;93.90;;;;;;5002621;28;20018;-73
2022/05/25 04:45:00;;;;;;;4.43;1.10;;;10.70;93.90;;;;;;4993331;28;20464;-73
2022/05/25 04:47:31;;;;;;;2.50;0.80;;;10.80;93.90;;;;;;4994937;28;20170;-74
2022/05/25 04:49:58;;;;;;;7.70;1.40;;;10.90;93.60;;;;;;4995662;28;20040;-74
2022/05/25 04:52:24;;;;;;;3.65;0.77;;;11.00;93.40;;;;;;5000960;28;20034;-71
2022/05/25 04:54:49;;;;;;;3.70;1.10;;;11.00;93.50;;;;;;4995241;28;20030;-72
2022/05/25 04:57:22;;;;;;;4.15;1.00;;;11.10;93.30;;;;;;5004145;28;20052;-71
2022/05/25 04:59:53;;;;;;;5.28;1.00;;;11.20;93.40;;;;;;5029220;28;20049;-72
2022/05/25 05:02:19;;;;;;;5.15;1.08;;;11.20;93.30;;;;;;5002673;28;20025;-71
2022/05/25 05:04:46;;;;;;;3.60;0.95;;;11.20;93.50;;;;;;5005672;28;20028;-72
2022/05/25 05:07:13;;;;;;;11.23;2.03;;;11.30;93.60;;;;;;5000933;28;20070;-71
2022/05/25 05:09:41;;;;;;;11.05;1.92;;;11.30;94.10;;;;;;4994377;28;20036;-72
2022/05/25 05:12:07;;;;;;;5.13;1.63;;;11.20;94.30;;;;;;5000873;28;20369;-74
2022/05/25 05:14:32;;;;;;;6.53;1.58;;;11.20;94.60;;;;;;5001471;28;20062;-80
2022/05/25 05:17:00;;;;;;;10.50;1.60;;;11.20;94.60;;;;;;5006111;28;20560;-74
2022/05/25 05:19:27;;;;;;;4.88;1.10;;;11.20;94.80;;;;;;4997392;28;20077;-71
2022/05/25 05:21:54;;;;;;;6.28;1.20;;;11.20;94.80;;;;;;5000629;28;20033;-75
2022/05/25 05:24:22;;;;;;;5.60;1.00;;;11.30;94.80;;;;;;5007789;28;20436;-79
2022/05/25 05:26:48;;;;;;;6.00;1.13;;;11.50;95.30;;;;;;5021767;28;20034;-71
2022/05/25 05:29:14;;;;;;;5.53;1.35;;;11.70;95.30;;;;;;5002699;28;20041;-73
2022/05/25 05:31:39;;;;;;;7.72;1.00;;;11.80;95.30;;;;;;5004697;28;20500;-71
2022/05/25 05:34:05;;;;;;;6.60;1.35;;;11.90;95.30;;;;;;5010295;28;20159;-76
2022/05/25 05:36:36;;;;;;;9.07;2.30;;;12.00;95.40;;;;;;5003855;28;20030;-74
2022/05/25 05:39:06;;;;;;;8.52;1.30;;;12.20;95.40;;;;;;5007804;28;20626;-70
2022/05/25 05:41:44;;;;;;;7.68;1.55;;;12.40;95.40;;;;;;5000835;28;20041;-72
2022/05/25 05:44:13;;;;;;;9.18;1.50;;;12.60;95.40;;;;;;5009211;28;20034;-71
2022/05/25 05:46:41;;;;;;;4.20;1.27;;;12.80;95.00;;;;;;5002389;28;20035;-72
2022/05/25 05:49:11;;;;;;;6.38;1.23;;;12.80;94.50;;;;;;5028482;28;20077;-71
2022/05/25 05:51:37;;;;;;;;;;;13.00;94.40;;;;;;5001153;28;20116;-74
2022/05/25 05:54:03;;;;;;;6.03;1.00;;;13.10;94.00;;;;;;5000619;28;20004;-73
2022/05/25 05:56:29;;;;;;;4.95;0.90;;;13.20;93.70;;;;;;5016801;28;20033;-71
2022/05/25 05:58:55;;;;;;;6.72;1.10;;;13.20;93.40;;;;;;5013239;28;20025;-71
2022/05/25 06:01:21;;;;;;;8.57;1.30;;;13.20;93.00;;;;;;5013450;28;20025;-72
2022/05/25 06:03:47;;;;;;;10.90;1.35;;;13.20;92.80;;;;;;5000995;28;20030;-79
2022/05/25 06:06:13;;;;;;;7.60;0.90;;;13.20;92.80;;;;;;5003022;28;20121;-75
2022/05/25 06:08:38;;;;;;;7.53;1.27;;;13.20;92.50;;;;;;5006118;28;20037;-72
2022/05/25 06:11:04;;;;;;;10.27;1.65;;;13.30;92.10;;;;;;5001828;28;20038;-70
2022/05/25 06:13:29;;;;;;;6.25;1.23;;;13.40;91.90;;;;;;5004351;28;20034;-71
2022/05/25 06:21:26;;;;;;;7.03;1.17;;;13.60;91.10;;;;;;5007975;28;20558;-71
2022/05/25 06:23:52;;;;;;;7.22;1.33;;;13.70;90.10;;;;;;5010180;28;20022;-72
2022/05/25 06:26:18;;;;;;;6.72;1.30;;;13.60;90.10;;;;;;4996574;28;20670;-72
2022/05/25 06:28:44;;;;;;;5.55;1.30;;;13.60;90.40;;;;;;4997499;28;20026;-70
2022/05/25 06:31:12;;;;;;;7.93;1.23;;;13.60;90.60;;;;;;4998858;28;20464;-73
2022/05/25 06:33:38;;;;;;;7.47;1.35;;;13.60;90.90;;;;;;5002707;28;20805;-72
2022/05/25 06:36:16;;;;;;;9.32;1.40;;;13.60;90.70;;;;;;5010223;28;20036;-76
2022/05/25 06:38:42;;;;;;;9.38;1.70;;;13.60;90.70;;;;;;5003708;28;20037;-70
2022/05/25 06:41:08;;;;;;;11.35;1.20;;;13.60;88.90;;;;;;5002411;28;20038;-73
2022/05/25 06:43:34;;;;;;;7.30;1.35;;;13.60;89.00;;;;;;5007159;28;20030;-69
2022/05/25 06:45:59;;;;;;;9.73;1.30;;;13.70;87.20;;;;;;5004315;28;20033;-72
2022/05/25 06:48:25;;;;;;;6.15;0.95;;;13.70;87.10;;;;;;5015700;28;20029;-70
2022/05/25 06:50:50;;;;;;;7.00;1.13;;;13.70;86.70;;;;;;4998743;28;20038;-69
2022/05/25 06:53:16;;;;;;;6.85;1.08;;;13.70;86.20;;;;;;4995063;28;20034;-70
2022/05/25 06:55:42;;;;;;;6.78;1.10;;;13.70;85.50;;;;;;4999861;28;20056;-70
2022/05/25 06:58:07;;;;;;;8.48;1.30;;;13.70;86.70;;;;;;4999309;28;20069;-69
2022/05/25 07:00:33;;;;;;;11.13;1.50;;;13.70;87.10;;;;;;5004647;28;20519;-69
2022/05/25 07:03:03;;;;;;;7.90;1.23;;;13.80;88.40;;;;;;5003612;28;20041;-69
2022/05/25 07:05:28;;;;;;;8.05;1.10;;;13.80;90.10;;;;;;5030889;28;20034;-69
2022/05/25 07:07:54;;;;;;;9.48;1.52;;;13.90;90.10;;;;;;4997340;28;20030;-69
2022/05/25 07:10:20;;;;;;;10.25;1.38;;;13.90;89.70;;;;;;5004507;28;20476;-71
2022/05/25 07:12:46;;;;;;;7.45;1.20;;;14.00;89.00;;;;;;5000444;28;20026;-73
2022/05/25 07:15:12;;;;;;;12.30;1.83;;;14.00;87.70;;;;;;5000478;28;20034;-72
2022/05/25 07:17:38;;;;;;;9.95;1.30;;;14.00;87.90;;;;;;4996311;28;20432;-70
2022/05/25 07:20:06;;;;;;;11.32;1.50;;;14.00;88.00;;;;;;4990642;28;20754;-71
2022/05/25 07:22:32;;;;;;;8.30;1.20;;;14.00;87.60;;;;;;5002923;28;20022;-75
2022/05/25 07:24:58;;;;;;;10.25;1.40;;;14.00;88.70;;;;;;5005193;28;20178;-71
2022/05/25 07:27:23;;;;;;;10.90;1.65;;;14.10;88.80;;;;;;5007966;28;20101;-72
2022/05/25 07:29:49;;;;;;;7.03;1.35;;;14.10;88.60;;;;;;5010066;28;20065;-72
2022/05/25 07:32:15;;;;;;;11.32;1.75;;;14.00;86.90;;;;;;5004701;28;20069;-72
2022/05/25 07:34:46;;;;;;;11.98;1.63;;;14.00;86.80;;;;;;5002133;28;20417;-72
2022/05/25 07:37:15;;;;;;;11.35;1.80;;;14.00;87.50;;;;;;5003149;28;20500;-71
2022/05/25 07:40:05;;;;;;;8.65;1.80;;;14.00;87.50;;;;;;5005663;28;20033;-69
2022/05/25 07:42:32;;;;;;;6.95;1.42;;;14.10;88.00;;;;;;5036574;28;20169;-73
2022/05/25 07:44:59;;;;;;;7.57;1.35;;;14.10;88.40;;;;;;5004106;28;20353;-71
2022/05/25 07:47:27;;;;;;;13.30;1.80;;;14.20;88.10;;;;;;5015224;28;20030;-70
2022/05/25 07:49:53;;;;;;;9.85;1.20;;;14.20;87.60;;;;;;5005497;28;20730;-72
2022/05/25 07:52:20;;;;;;;10.98;1.58;;;14.20;87.30;;;;;;5006057;28;20084;-71
2022/05/25 07:54:47;;;;;;;10.48;1.73;;;14.30;87.10;;;;;;5036837;28;20048;-70
2022/05/25 07:57:13;;;;;;;9.52;1.60;;;14.30;86.90;;;;;;5003619;28;20025;-70
2022/05/25 07:59:40;;;;;;;9.73;1.60;;;14.30;87.10;;;;;;4998945;28;20111;-72
2022/05/25 08:07:54;;;;;;;11.00;1.77;;;14.20;87.60;;;;;;5005579;28;20029;-73
2022/05/25 08:10:23;;;;;;;10.48;1.38;;;14.20;88.50;;;;;;5038565;28;20033;-70
2022/05/25 08:12:51;;;;;;;7.35;1.15;;;14.20;89.30;;;;;;5005041;28;20073;-71
2022/05/25 08:15:17;;;;;;;9.77;1.50;;;14.20;89.70;;;;;;5003242;28;20030;-72
2022/05/25 08:17:43;;;;;;;12.85;1.95;;;14.30;88.50;;;;;;5035431;28;20380;-71
2022/05/25 08:20:10;;;;;;;14.10;1.90;;;14.30;89.10;;;;;;5006997;28;20045;-70
2022/05/25 08:22:37;;;;;;;10.05;1.65;;;14.40;88.40;;;;;;5004171;28;20049;-77
2022/05/25 08:25:04;;;;;;;11.68;1.60;;;14.50;87.60;;;;;;5006132;28;20068;-71
2022/05/25 08:27:31;;;;;;;10.05;1.98;;;14.60;87.70;;;;;;5006286;28;20079;-71
2022/05/25 08:29:57;;;;;;;10.52;1.50;;;14.70;87.60;;;;;;5005722;28;20072;-73
2022/05/25 08:32:23;;;;;;;7.50;1.48;;;14.70;87.10;;;;;;5001650;28;20049;-71
2022/05/25 08:34:49;;;;;;;6.53;1.10;;;14.80;86.60;;;;;;5004684;28;20034;-72
2022/05/25 08:37:15;;;;;;;9.25;1.75;;;14.80;85.20;;;;;;5006183;28;20030;-70
2022/05/25 08:39:40;;;;;;;14.68;1.65;;;14.80;85.80;;;;;;5006452;28;20022;-69
2022/05/25 08:42:14;;;;;;;7.90;1.85;;;14.80;87.20;;;;;;5006881;28;20129;-72
2022/05/25 08:44:42;;;;;;;11.43;1.75;;;14.80;86.30;;;;;;5020206;28;20056;-69
2022/05/25 08:47:10;;;;;;;8.32;1.38;;;14.90;85.20;;;;;;5001475;28;20034;-74
2022/05/25 08:49:39;;;;;;;15.23;2.03;;;14.90;86.20;;;;;;5031867;28;20025;-70
2022/05/25 08:52:22;;;;;;;12.07;1.90;;;14.80;88.00;;;;;;5008084;28;20125;-69
2022/05/25 08:54:48;;;;;;;11.23;1.60;;;14.80;87.40;;;;;;5022117;28;20050;-70
2022/05/25 08:57:22;;;;;;;7.72;1.20;;;14.80;88.20;;;;;;5005134;28;20034;-72
2022/05/25 09:00:01;;;;;;;9.88;1.50;;;14.70;89.20;;;;;;5009283;28;20376;-69
2022/05/25 09:02:42;;;;;;;10.55;1.60;;;14.70;88.90;;;;;;4998079;28;20021;-73
2022/05/25 09:05:24;;;;;;;9.35;1.55;;;14.80;88.10;;;;;;5010010;28;20049;-72
2022/05/25 09:08:05;;;;;;;11.90;1.23;;;14.80;88.30;;;;;;5008544;28;20077;-72
2022/05/25 09:10:36;;;;;;;14.35;1.85;;;14.90;88.70;;;;;;5011325;28;20391;-71
2022/05/25 09:13:06;;;;;;;14.00;1.75;;;15.00;87.10;;;;;;5011502;28;20022;-73
2022/05/25 09:16:15;;;;;;;11.00;1.70;;;15.00;88.30;;;;;;5011360;28;20038;-71
2022/05/25 09:18:29;;;;;;;10.30;1.73;;;15.10;87.40;;;;;;5005920;28;20480;-73
2022/05/25 09:20:54;;;;;;;12.68;2.00;;;15.20;86.20;;;;;;4998812;28;20472;-70
2022/05/25 09:23:20;;;;;;;10.30;1.80;;;15.20;84.80;;;;;;5016398;28;20029;-72
2022/05/25 09:25:46;;;;;;;11.98;1.70;;;15.20;86.20;;;;;;5009900;28;20032;-70
2022/05/25 09:28:20;;;;;;;9.98;1.33;;;15.30;87.40;;;;;;5009494;28;20044;-72
2022/05/25 09:30:51;;;;;;;11.10;1.60;;;15.30;84.80;;;;;;5024917;28;20030;-71
2022/05/25 09:33:35;;;;;;;9.27;1.67;;;15.20;86.40;;;;;;5011568;28;20494;-71
2022/05/25 09:36:15;;;;;;;14.55;1.92;;;15.20;87.60;;;;;;5010776;28;20143;-69
2022/05/25 09:38:45;;;;;;;11.13;1.63;;;15.10;89.00;;;;;;5009850;28;20144;-72
2022/05/25 09:41:20;;;;;;;12.68;2.08;;;15.00;90.00;;;;;;5010669;28;20041;-74
2022/05/25 09:43:46;;;;;;;10.50;1.75;;;14.90;90.20;;;;;;5011010;28;20368;-76
2022/05/25 09:46:27;;;;;;;13.40;1.90;;;14.80;90.20;;;;;;5010886;28;20030;-71
2022/05/25 09:48:59;;;;;;;11.15;1.92;;;14.70;90.90;;;;;;5021990;28;20704;-71
2022/05/25 09:51:40;;;;;;;10.85;2.22;;;14.70;90.90;;;;;;5028670;28;20095;-72
2022/05/25 09:54:18;;;;;;;13.02;1.90;;;14.80;90.60;;;;;;5030766;28;20059;-72
2022/05/25 09:56:51;;;;;;;9.82;1.67;;;14.80;90.70;;;;;;4997610;28;20109;-73
2022/05/25 09:59:30;;;;;;;13.13;2.08;;;14.80;90.70;;;;;;5010545;28;20032;-71
2022/05/25 10:01:56;;;;;;;14.27;2.38;;;14.70;90.70;;;;;;5042008;28;20033;-71
2022/05/25 10:04:55;;;;;;;11.60;2.13;;;14.70;91.10;;;;;;5010830;28;20145;-74
2022/05/25 10:08:03;;;;;;;18.20;2.38;;;14.80;91.20;;;;;;5009907;28;20476;-71
2022/05/25 10:10:33;;;;;;;14.68;2.80;;;14.70;91.00;;;;;;5001339;28;20153;-70
2022/05/25 10:13:01;;;;;;;12.65;1.70;;;14.80;91.30;;;;;;4995365;28;20033;-70
2022/05/25 10:15:34;;;;;;;10.95;1.80;;;14.70;91.40;;;;;;5006007;28;20022;-70
2022/05/25 10:18:00;;;;;;;10.90;1.67;;;14.80;90.90;;;;;;4990960;28;20125;-71
2022/05/25 10:20:47;;;;;;;13.48;1.98;;;14.80;91.10;;;;;;4999951;28;20037;-72
2022/05/25 10:23:21;;;;;;;14.65;2.00;;;14.90;91.40;;;;;;5010836;28;20034;-73
2022/05/25 10:25:56;;;;;;;15.73;1.98;;;15.10;91.10;;;;;;5008708;28;20113;-73
2022/05/25 10:28:24;;;;;;;13.00;1.73;;;15.20;90.50;;;;;;5007999;28;20032;-70
2022/05/25 10:37:09;;;;;;;11.75;2.08;;;15.00;91.60;;;;;;5010414;28;20092;-70
2022/05/25 10:39:58;;;;;;;9.45;1.90;;;14.80;91.30;;;;;;5023817;28;20376;-76
2022/05/25 10:42:26;;;;;;;11.40;1.90;;;14.80;91.90;;;;;;5004042;28;20176;-71
2022/05/25 10:45:10;;;;;;;16.52;2.35;;;14.70;92.10;;;;;;5007416;28;20050;-70
2022/05/25 10:47:51;;;;;;;13.80;1.92;;;14.70;92.20;;;;;;5005162;28;20052;-73
2022/05/25 10:50:56;;;;;;;10.43;2.22;;;14.70;92.40;;;;;;5004036;28;20420;-72
2022/05/25 10:53:24;;;;;;;15.50;2.30;;;14.70;92.10;;;;;;5002939;28;20036;-72
2022/05/25 10:56:08;;;;;;;12.25;1.73;;;14.70;92.90;;;;;;5006370;28;20460;-73
2022/05/25 10:59:02;;;;;;;16.05;2.95;;;14.60;92.80;;;;;;5005522;28;20075;-70
2022/05/25 11:01:40;;;;;;;16.35;2.00;;;14.60;92.70;;;;;;5008675;28;20057;-72
2022/05/25 11:04:27;;;;;;;16.20;2.42;;;14.50;93.20;;;;;;5008000;28;20080;-74
2022/05/25 11:06:58;;;;;;;15.20;2.58;;;14.50;93.70;;;;;;5004447;28;20093;-71
2022/05/25 11:09:48;;;;;;;19.38;2.50;;;14.40;93.50;;;;;;5009420;28;20038;-72
2022/05/25 11:12:17;;;;;;;17.88;3.85;;;14.40;94.10;;;;;;5009177;28;20041;-74
2022/05/25 11:14:43;;;;;;;17.15;2.88;;;14.50;93.50;;;;;;5007623;28;20140;-72
2022/05/25 11:17:35;;;;;;;18.98;2.47;;;14.40;93.70;;;;;;5008044;28;20018;-70
2022/05/25 11:20:13;;;;;;;15.18;2.38;;;14.30;94.30;;;;;;5010950;28;20040;-74
2022/05/25 11:22:47;;;;;;;13.45;2.22;;;14.10;94.90;;;;;;4993204;28;20330;-72
2022/05/25 11:25:36;;;;;;;19.65;3.38;;;14.10;94.90;;;;;;5012855;28;20104;-71
2022/05/25 11:28:26;;;;;;;17.85;2.78;;;14.00;95.00;;;;;;4988069;28;20033;-71
2022/05/25 11:31:28;;;;;;;17.25;2.97;;;14.10;94.70;;;;;;5005670;28;20065;-74
2022/05/25 11:34:11;;;;;;;15.57;2.60;;;14.20;94.60;;;;;;5022121;28;20107;-69
2022/05/25 11:37:10;;;;;;;15.70;2.15;;;14.20;94.20;;;;;;5023540;28;20057;-72
2022/05/25 11:40:29;;;;;;;15.88;2.97;;;14.20;94.20;;;;;;5006445;28;20472;-71
2022/05/25 11:43:15;;;;;;;15.02;2.60;;;14.10;94.30;;;;;;4996875;28;20796;-71
2022/05/25 11:46:13;;;;;;;17.67;3.00;;;14.10;94.90;;;;;;5005652;28;20636;-75
2022/05/25 11:48:46;;;;;;;17.20;2.75;;;14.10;95.20;;;;;;4973771;28;20053;-74
2022/05/25 11:51:39;;;;;;;21.80;3.00;;;14.10;95.20;;;;;;4988859;28;20103;-72
2022/05/25 11:54:10;;;;;;;16.40;2.95;;;14.10;95.00;;;;;;5005567;28;20022;-70
2022/05/25 11:56:41;;;;;;;19.08;2.83;;;14.00;95.70;;;;;;4990174;28;20109;-72
2022/05/25 11:59:19;;;;;;;16.70;3.20;;;14.00;96.90;;;;;;4986340;28;20030;-72
2022/05/25 12:01:57;;;;;;;17.02;3.38;;;14.00;96.90;;;;;;4996607;28;20073;-73
2022/05/25 12:04:48;;;;;;;14.90;2.92;;;14.00;97.40;;;;;;5003268;28;20069;-71
2022/05/25 12:07:19;;;;;;;13.55;2.58;;;14.00;97.30;;;;;;5000083;28;20116;-73
2022/05/25 12:10:09;;;;;;;20.98;3.25;;;13.90;97.70;;;;;;5000465;28;20045;-72
2022/05/25 12:12:48;;;;;;;14.05;2.63;;;13.90;97.50;;;;;;4998715;28;20616;-73
2022/05/25 12:15:25;;;;;;;18.30;4.03;;;13.90;97.80;;;;;;4977696;28;20039;-70
2022/05/25 12:18:13;;;;;;;21.75;3.60;;;13.80;98.50;;;;;;4988289;28;20042;-74
2022/05/25 12:21:08;;;;;;;18.42;3.45;;;13.80;98.60;;;;;;4988320;28;20018;-75
2022/05/25 12:23:45;;;;;;;16.38;2.88;;;13.80;98.10;;;;;;4987832;28;20043;-73
2022/05/25 12:26:15;;;;;;;18.25;3.03;;;13.80;98.10;;;;;;4991421;28;20032;-73
2022/05/25 12:28:43;;;;;;;25.88;3.78;;;13.90;97.90;;;;;;5005138;28;20026;-74
2022/05/25 12:31:14;;;;;;;14.20;3.10;;;14.10;98.40;;;;;;5006652;28;20037;-73
2022/05/25 12:33:41;;;;;;;15.73;2.90;;;14.20;97.50;;;;;;5008016;28;20054;-72
2022/05/25 12:36:10;;;;;;;16.63;2.70;;;14.20;97.20;;;;;;5008200;28;20026;-70
2022/05/25 12:38:37;;;;;;;16.23;2.80;;;14.20;97.20;;;;;;5006847;28;20030;-72
2022/05/25 12:41:25;;;;;;;19.48;3.08;;;14.20;96.70;;;;;;5023057;28;20036;-72
2022/05/25 12:43:54;;;;;;;16.05;2.60;;;14.20;96.60;;;;;;5008147;28;20037;-69
2022/05/25 12:49:34;;;;;;;13.55;2.92;;;14.10;96.60;;;;;;5007415;28;20080;-73
2022/05/25 12:52:00;;;;;;;25.90;4.07;;;14.10;96.70;;;;;;5006442;28;20037;-70
2022/05/25 12:54:32;;;;;;;20.73;3.10;;;14.00;96.90;;;;;;5023013;28;20484;-74
2022/05/25 12:57:00;;;;;;;18.65;3.08;;;14.10;96.80;;;;;;5022770;28;20037;-73
2022/05/25 12:59:25;;;;;;;17.48;3.25;;;14.10;96.60;;;;;;5022811;28;20032;-71
2022/05/25 13:02:29;;;;;;;19.92;3.25;;;14.10;96.60;;;;;;5007539;28;20026;-76
2022/05/25 13:04:59;;;;;;;21.70;3.53;;;14.10;96.60;;;;;;4975067;28;20424;-77
2022/05/25 13:07:39;;;;;;;14.85;2.72;;;14.10;96.40;;;;;;4966392;28;20035;-76
2022/05/25 13:10:30;;;;;;;19.52;3.53;;;14.00;96.40;;;;;;4979211;28;20038;-75
2022/05/25 13:12:56;;;;;;;21.33;3.28;;;14.00;96.70;;;;;;4986918;28;20675;-73
2022/05/25 13:15:22;;;;;;;15.63;2.88;;;13.90;97.00;;;;;;4984379;28;20037;-74
2022/05/25 13:17:53;;;;;;;16.65;3.00;;;13.90;97.30;;;;;;4983014;28;20026;-75
2022/05/25 13:20:28;;;;;;;17.45;3.00;;;13.90;97.30;;;;;;4984087;28;20456;-74
2022/05/25 13:22:59;;;;;;;17.60;3.47;;;13.90;97.20;;;;;;4985168;28;20061;-72
2022/05/25 13:25:46;;;;;;;20.48;3.80;;;14.00;97.10;;;;;;4985036;28;20259;-73
2022/05/25 13:28:27;;;;;;;20.95;4.05;;;14.10;97.00;;;;;;4984964;28;20112;-73
2022/05/25 13:31:03;;;;;;;18.13;3.75;;;14.10;96.70;;;;;;4985139;28;20042;-71
2022/05/25 13:33:40;;;;;;;20.83;3.35;;;14.20;96.60;;;;;;4984886;28;20054;-69
2022/05/25 13:36:07;;;;;;;22.30;3.45;;;14.30;96.70;;;;;;4968079;28;20094;-71
2022/05/25 13:38:36;;;;;;;19.27;3.85;;;14.30;96.30;;;;;;4979860;28;20127;-70